Chronik & Geschichte

Boeing Stearman am Flugplatz Konstanz

Mit seiner 107-jährigen Geschichte ist Konstanz der älteste Verkehrslandeplatz Deutschlands. Lesen Sie unsere Festschrift zum 100-jährigen Platzjubiläum oder entdecken Sie die ausführliche Flugplatzchronik auf der Website der Initiative PRO Flugplatz Konstanz.

Live am Platz

Die Bilder unserer Webcams werden alle 5 Minuten aktualisiert.

Sonnenaufgang:

05:05 UTC / 07:05 Lokal

Sonnenuntergang:

17:29 UTC / 19:29 Lokal

METAR (19.09.2018 02:50 UTC):

EDNY 190050Z AUTO 36003KT 270V060 9999 // NCD 15/14 Q1021
VFR

TAF (19.09.2018 01:00 UTC):

TAF EDNY 182300Z 1900/1924 VRB03KT CAVOK PROB30 TEMPO 1902/1906 2000 BCFG BECMG 1910/1912 23005KT BECMG 1915/1917 VRB03KT

Alle Angaben unverbindlich und ohne Gewähr. Zeiten genähert.

Für den Verkehrslandeplatz Konstanz werden keine offiziellen Wetterinformationen herausgegeben. Daher werden zur Orientierung Daten des nahegelegenen Flughafens Friedrichshafen dargestellt.